This is the latest recevied weather packets stored in our database for station/object KR4ELZ. If no packets are shown the sender has not sent any weather packets the latest 10 day(s).
| Time | Temp. | Humidity | Pressure | Rain* | Wind** | Luminosity | Snow |
|---|---|---|---|---|---|---|---|
| 1777854157 | 20.56° C | 45% | 1015.6 hPa | 0 mm | - | 7 W/m² | - |
| 1777853855 | 21.11° C | 44% | 1015.6 hPa | 0 mm | - | 9 W/m² | - |
| 1777853552 | 21.11° C | 46% | 1015.6 hPa | 0 mm | - | 12 W/m² | - |
| 1777853248 | 22.22° C | 41% | 1015.7 hPa | 0 mm | - | 14 W/m² | - |
| 1777852945 | 22.78° C | 40% | 1015.5 hPa | 0 mm | - | 21 W/m² | - |
| 1777852644 | 22.78° C | 40% | 1015.8 hPa | 0 mm | - | 26 W/m² | - |
| 1777852341 | 22.78° C | 37% | 1015.8 hPa | 0 mm | - | 32 W/m² | - |
| 1777852038 | 22.78° C | 38% | 1015.8 hPa | 0 mm | - | 37 W/m² | - |
| 1777851736 | 22.78° C | 38% | 1015.6 hPa | 0 mm | - | 43 W/m² | - |
| 1777851433 | 23.33° C | 37% | 1015.6 hPa | 0 mm | - | 50 W/m² | - |
| 1777851129 | 23.89° C | 36% | 1015.8 hPa | 0 mm | - | 57 W/m² | - |
| 1777850826 | 23.89° C | 37% | 1015.9 hPa | 0 mm | - | 64 W/m² | - |
| 1777850523 | 23.33° C | 38% | 1015.8 hPa | 0 mm | - | 72 W/m² | - |
| 1777850221 | 23.33° C | 36% | 1015.9 hPa | 0 mm | - | 80 W/m² | - |
| 1777849917 | 23.89° C | 37% | 1016 hPa | 0 mm | - | 88 W/m² | - |
| 1777849614 | 22.78° C | 37% | 1016.1 hPa | 0 mm | - | 97 W/m² | - |
| 1777849311 | 22.78° C | 41% | 1016.1 hPa | 0 mm | - | 108 W/m² | - |
| 1777849008 | 23.33° C | 36% | 1016.2 hPa | 0 mm | - | 118 W/m² | - |
| 1777848708 | 23.33° C | 37% | 1016 hPa | 0 mm | - | 128 W/m² | - |
| 1777848406 | 23.33° C | 36% | 1016.2 hPa | 0 mm | - | 140 W/m² | - |
| 1777848104 | 23.33° C | 36% | 1016.3 hPa | 0 mm | - | 150 W/m² | - |
| 1777847801 | 23.33° C | 36% | 1016.3 hPa | 0 mm | - | 161 W/m² | - |
| 1777847498 | 23.33° C | 37% | 1016.4 hPa | 0 mm | - | 173 W/m² | - |
| 1777847195 | 23.33° C | 38% | 1016.4 hPa | 0 mm | - | 185 W/m² | - |
| 1777846892 | 23.89° C | 35% | 1016.2 hPa | 0 mm | - | 198 W/m² | - |
* Rain latest hour (hover to see other rain measurements)
** Current wind speed in m/s (hover to see current wind gust speed)